Time;durP1;ratioP1;P1;durP2;ratioP2;P2;SDS_P1;SDS_P2;PMS_P1;PMS_P2;Temp;Humidity;BMP_temperature;BMP_pressure;BME280_temperature;BME280_humidity;BME280_pressure;Samples;Min_cycle;Max_cycle;Signal;HPM_P1;HPM_P2
2021/11/04 00:00:20;;;;;;;27.17;19.42;;;;;;;;;;5033578;28;20206;-56
2021/11/04 00:02:48;;;;;;;27.90;20.08;;;;;;;;;;5033479;28;20209;-57
2021/11/04 00:05:16;;;;;;;27.75;18.73;;;;;;;;;;5033394;28;20226;-57
2021/11/04 00:07:45;;;;;;;27.52;19.63;;;;;;;;;;5033512;28;20213;-55
2021/11/04 00:10:12;;;;;;;26.48;19.05;;;;;;;;;;5033071;28;20210;-56
2021/11/04 00:12:41;;;;;;;23.25;18.40;;;;;;;;;;5032960;28;20212;-55
2021/11/04 00:15:08;;;;;;;28.33;20.48;;;;;;;;;;5033350;28;20222;-55
2021/11/04 00:17:36;;;;;;;28.08;21.35;;;;;;;;;;5032909;28;20209;-55
2021/11/04 00:20:04;;;;;;;30.00;19.08;;;;;;;;;;5032855;28;20206;-55
2021/11/04 00:22:31;;;;;;;30.10;20.73;;;;;;;;;;5033245;28;20206;-55
2021/11/04 00:24:58;;;;;;;29.00;19.52;;;;;;;;;;5035757;28;20237;-55
2021/11/04 00:27:25;;;;;;;30.88;21.10;;;;;;;;;;5037784;28;20202;-55
2021/11/04 00:29:54;;;;;;;28.27;20.23;;;;;;;;;;5037245;28;20256;-55
2021/11/04 00:32:21;;;;;;;27.88;20.08;;;;;;;;;;5036873;28;20209;-55
2021/11/04 00:34:49;;;;;;;27.17;19.23;;;;;;;;;;5036740;28;20607;-55
2021/11/04 00:37:16;;;;;;;29.30;20.35;;;;;;;;;;5037115;28;20217;-55
2021/11/04 00:39:43;;;;;;;29.25;19.08;;;;;;;;;;5037060;28;20583;-55
2021/11/04 00:42:11;;;;;;;27.88;19.75;;;;;;;;;;5037214;28;20292;-55
2021/11/04 00:44:38;;;;;;;28.20;19.77;;;;;;;;;;5037288;28;20229;-55
2021/11/04 00:47:07;;;;;;;26.20;20.45;;;;;;;;;;5037149;28;20202;-55
2021/11/04 00:49:34;;;;;;;26.95;20.23;;;;;;;;;;5036643;28;20692;-54
2021/11/04 00:52:02;;;;;;;25.88;18.88;;;;;;;;;;5036882;28;20198;-55
2021/11/04 00:54:29;;;;;;;27.70;19.80;;;;;;;;;;5036714;28;20260;-56
2021/11/04 00:56:56;;;;;;;25.23;18.52;;;;;;;;;;5037095;28;20209;-56
2021/11/04 00:59:24;;;;;;;27.70;19.75;;;;;;;;;;5036409;28;20214;-55
2021/11/04 01:01:51;;;;;;;26.42;17.92;;;;;;;;;;5036561;28;20203;-56
2021/11/04 01:04:20;;;;;;;23.90;18.75;;;;;;;;;;5036611;28;20245;-55
2021/11/04 01:06:47;;;;;;;25.30;18.92;;;;;;;;;;5036575;28;20205;-56
2021/11/04 01:09:14;;;;;;;24.50;17.75;;;;;;;;;;5036570;28;20268;-56
2021/11/04 01:11:41;;;;;;;23.42;18.90;;;;;;;;;;5036469;28;20206;-56
2021/11/04 01:14:09;;;;;;;26.90;19.15;;;;;;;;;;5036160;28;20233;-56
2021/11/04 01:16:38;;;;;;;25.15;19.05;;;;;;;;;;5036186;28;20575;-56
2021/11/04 01:19:05;;;;;;;26.30;19.52;;;;;;;;;;5036422;28;20202;-56
2021/11/04 01:21:34;;;;;;;23.50;18.58;;;;;;;;;;5036682;28;20210;-56
2021/11/04 01:24:01;;;;;;;24.90;18.45;;;;;;;;;;5036096;28;20225;-56
2021/11/04 01:26:29;;;;;;;25.90;20.60;;;;;;;;;;5036056;28;20203;-56
2021/11/04 01:28:56;;;;;;;28.23;17.67;;;;;;;;;;5036419;28;20202;-55
2021/11/04 01:31:23;;;;;;;25.23;18.92;;;;;;;;;;5035794;28;20202;-55
2021/11/04 01:33:51;;;;;;;27.02;18.92;;;;;;;;;;5035919;28;20222;-56
2021/11/04 01:36:18;;;;;;;22.60;17.92;;;;;;;;;;5035371;28;20230;-56
2021/11/04 01:38:47;;;;;;;21.17;17.95;;;;;;;;;;5036171;28;20213;-56
2021/11/04 01:41:14;;;;;;;24.00;18.23;;;;;;;;;;5036732;28;20202;-56
2021/11/04 01:43:41;;;;;;;23.52;17.73;;;;;;;;;;5036218;28;20218;-56
2021/11/04 01:46:08;;;;;;;24.08;19.00;;;;;;;;;;5036059;28;20197;-56
2021/11/04 01:48:36;;;;;;;24.23;18.48;;;;;;;;;;5036412;28;20202;-56
2021/11/04 01:51:03;;;;;;;22.45;17.63;;;;;;;;;;5036095;28;20214;-56
2021/11/04 01:53:30;;;;;;;26.88;18.35;;;;;;;;;;5035861;28;20218;-56
2021/11/04 01:55:59;;;;;;;26.80;16.50;;;;;;;;;;5035918;28;20198;-56
2021/11/04 01:58:26;;;;;;;22.02;16.95;;;;;;;;;;5035771;28;20202;-56
2021/11/04 02:00:54;;;;;;;19.67;16.30;;;;;;;;;;5035555;28;20198;-56
2021/11/04 02:03:26;;;;;;;22.63;16.95;;;;;;;;;;5035268;28;20234;-56
2021/11/04 02:05:56;;;;;;;24.75;18.85;;;;;;;;;;5035818;28;20191;-56
2021/11/04 02:08:27;;;;;;;25.20;18.80;;;;;;;;;;5035846;28;20213;-56
2021/11/04 02:10:57;;;;;;;23.60;17.02;;;;;;;;;;5035589;28;20183;-56
2021/11/04 02:13:28;;;;;;;25.67;17.52;;;;;;;;;;5035430;28;20581;-56
2021/11/04 02:15:59;;;;;;;21.08;16.80;;;;;;;;;;5035442;28;20193;-56
2021/11/04 02:18:28;;;;;;;22.98;17.13;;;;;;;;;;5035519;28;20205;-56
2021/11/04 02:20:58;;;;;;;27.13;18.63;;;;;;;;;;5035078;28;20202;-56
2021/11/04 02:23:30;;;;;;;22.48;17.55;;;;;;;;;;5034757;28;20222;-56
2021/11/04 02:25:59;;;;;;;26.40;18.42;;;;;;;;;;5035414;28;20182;-56
2021/11/04 02:28:27;;;;;;;23.73;18.70;;;;;;;;;;5035487;28;20213;-56
2021/11/04 02:30:54;;;;;;;25.63;19.13;;;;;;;;;;5035578;28;20213;-56
2021/11/04 02:33:22;;;;;;;25.83;18.75;;;;;;;;;;5035542;28;20693;-56
2021/11/04 02:35:51;;;;;;;24.25;19.45;;;;;;;;;;5036164;28;20280;-56
2021/11/04 02:38:19;;;;;;;24.48;19.02;;;;;;;;;;5036340;28;20259;-56
2021/11/04 02:40:47;;;;;;;28.92;20.08;;;;;;;;;;5036179;28;20203;-56
2021/11/04 02:43:17;;;;;;;24.27;17.75;;;;;;;;;;5035333;28;20205;-56
2021/11/04 02:45:44;;;;;;;27.50;19.92;;;;;;;;;;5034690;28;20194;-56
2021/11/04 02:48:12;;;;;;;25.52;20.15;;;;;;;;;;5033723;28;20217;-55
2021/11/04 02:50:39;;;;;;;23.35;18.15;;;;;;;;;;5034768;28;20244;-55
2021/11/04 02:53:07;;;;;;;31.50;19.75;;;;;;;;;;5034792;28;20206;-55
2021/11/04 02:55:35;;;;;;;25.02;19.10;;;;;;;;;;5034857;28;20218;-55
2021/11/04 02:58:05;;;;;;;26.63;20.25;;;;;;;;;;5034657;28;20206;-55
2021/11/04 03:00:34;;;;;;;22.55;17.95;;;;;;;;;;5034286;28;20233;-55
2021/11/04 03:03:02;;;;;;;26.55;19.60;;;;;;;;;;5034527;28;20206;-56
2021/11/04 03:05:29;;;;;;;27.80;19.05;;;;;;;;;;5034334;28;20226;-56
2021/11/04 03:07:56;;;;;;;24.88;19.67;;;;;;;;;;5034019;28;20689;-55
2021/11/04 03:10:24;;;;;;;27.10;19.27;;;;;;;;;;5034299;28;20268;-56
2021/11/04 03:12:52;;;;;;;26.25;19.13;;;;;;;;;;5033912;28;20217;-56
2021/11/04 03:15:20;;;;;;;26.77;20.15;;;;;;;;;;5034135;28;20226;-56
2021/11/04 03:17:50;;;;;;;28.65;20.42;;;;;;;;;;5034185;28;20213;-56
2021/11/04 03:20:18;;;;;;;27.63;20.02;;;;;;;;;;5034074;28;20228;-56
2021/11/04 03:22:47;;;;;;;28.60;21.20;;;;;;;;;;5034133;28;20214;-56
2021/11/04 03:25:15;;;;;;;28.25;21.40;;;;;;;;;;5033816;28;20222;-56
2021/11/04 03:27:43;;;;;;;29.38;20.15;;;;;;;;;;5033897;28;20206;-56
2021/11/04 03:30:12;;;;;;;30.73;20.20;;;;;;;;;;5033720;28;20206;-56
2021/11/04 03:32:39;;;;;;;25.35;20.38;;;;;;;;;;5034006;28;20202;-56
2021/11/04 03:35:09;;;;;;;25.50;20.35;;;;;;;;;;5033697;28;20226;-56
2021/11/04 03:37:37;;;;;;;29.75;21.83;;;;;;;;;;5034032;28;20202;-56
2021/11/04 03:40:05;;;;;;;28.75;21.05;;;;;;;;;;5033766;28;20212;-56
2021/11/04 03:42:32;;;;;;;28.77;21.50;;;;;;;;;;5033393;28;20206;-56
2021/11/04 03:45:00;;;;;;;26.35;20.85;;;;;;;;;;5033604;28;20229;-56
2021/11/04 03:47:30;;;;;;;32.25;20.30;;;;;;;;;;5033713;28;20664;-56
2021/11/04 03:49:58;;;;;;;25.38;20.13;;;;;;;;;;5033525;28;20696;-56
2021/11/04 03:52:27;;;;;;;29.02;22.02;;;;;;;;;;5033602;28;20202;-56
2021/11/04 03:54:55;;;;;;;29.63;21.73;;;;;;;;;;5033387;28;20266;-56
2021/11/04 03:57:24;;;;;;;26.77;20.65;;;;;;;;;;5033503;28;20206;-56
2021/11/04 03:59:52;;;;;;;29.13;20.15;;;;;;;;;;5033094;28;20208;-56
2021/11/04 04:02:19;;;;;;;29.90;21.80;;;;;;;;;;5033469;28;20233;-56
2021/11/04 04:04:52;;;;;;;27.15;21.13;;;;;;;;;;5033474;28;20222;-56
2021/11/04 04:08:51;;;;;;;30.63;22.33;;;;;;;;;;5132330;27;21041;-56
2021/11/04 04:11:18;;;;;;;29.83;21.55;;;;;;;;;;5131485;27;20190;-56
2021/11/04 04:13:46;;;;;;;31.65;22.10;;;;;;;;;;5131277;27;20222;-56
2021/11/04 04:16:13;;;;;;;28.50;20.30;;;;;;;;;;5132268;27;20203;-56
2021/11/04 04:18:40;;;;;;;28.67;22.05;;;;;;;;;;5131644;27;20201;-56
2021/11/04 04:21:07;;;;;;;30.85;22.58;;;;;;;;;;5135541;22;20232;-62
2021/11/04 04:23:35;;;;;;;33.63;21.85;;;;;;;;;;5091007;28;20212;-62
2021/11/04 04:26:03;;;;;;;30.85;21.42;;;;;;;;;;5090756;28;20207;-61
2021/11/04 04:28:31;;;;;;;29.10;21.40;;;;;;;;;;5090974;28;20216;-61
2021/11/04 04:30:58;;;;;;;28.25;21.08;;;;;;;;;;5090617;28;20224;-62
2021/11/04 04:33:25;;;;;;;28.27;21.58;;;;;;;;;;5091210;28;20239;-62
2021/11/04 04:35:55;;;;;;;26.65;20.10;;;;;;;;;;5090895;28;20208;-62
2021/11/04 04:38:22;;;;;;;25.80;19.25;;;;;;;;;;5091116;28;20200;-61
2021/11/04 04:40:50;;;;;;;28.88;19.90;;;;;;;;;;5091902;28;20224;-61
2021/11/04 04:43:19;;;;;;;30.48;20.23;;;;;;;;;;5092551;28;20730;-61
2021/11/04 04:45:46;;;;;;;28.00;20.08;;;;;;;;;;5091215;28;20205;-61
2021/11/04 04:48:13;;;;;;;32.88;20.60;;;;;;;;;;5090304;28;20223;-62
2021/11/04 04:50:41;;;;;;;25.67;19.55;;;;;;;;;;5090735;28;20220;-61
2021/11/04 04:53:09;;;;;;;25.30;18.48;;;;;;;;;;5091331;28;20208;-61
2021/11/04 04:55:36;;;;;;;24.60;17.98;;;;;;;;;;5090820;28;20197;-61
2021/11/04 04:58:06;;;;;;;26.30;18.75;;;;;;;;;;5090224;28;20196;-61
2021/11/04 05:00:35;;;;;;;27.25;19.08;;;;;;;;;;5089806;28;20285;-60
2021/11/04 05:03:03;;;;;;;27.83;20.13;;;;;;;;;;5090003;28;20304;-61
2021/11/04 05:05:31;;;;;;;28.33;19.73;;;;;;;;;;5090187;28;20230;-61
2021/11/04 05:07:58;;;;;;;28.42;20.83;;;;;;;;;;5090188;28;20220;-61
2021/11/04 05:10:25;;;;;;;29.27;18.10;;;;;;;;;;5089617;28;20225;-60
2021/11/04 05:12:53;;;;;;;26.50;19.90;;;;;;;;;;5090128;28;20204;-60
2021/11/04 05:15:20;;;;;;;27.98;18.52;;;;;;;;;;5089520;28;20649;-61
2021/11/04 05:17:49;;;;;;;29.95;20.58;;;;;;;;;;5090166;28;20239;-62
2021/11/04 05:20:16;;;;;;;27.83;20.20;;;;;;;;;;5075343;28;20204;-61
2021/11/04 05:22:44;;;;;;;28.23;18.48;;;;;;;;;;5076258;28;20189;-62
2021/11/04 05:25:11;;;;;;;24.15;17.65;;;;;;;;;;5076189;28;20615;-61
2021/11/04 05:27:46;;;;;;;25.52;18.52;;;;;;;;;;5075904;28;20262;-62
2021/11/04 05:30:14;;;;;;;28.55;19.38;;;;;;;;;;5076371;28;20192;-61
2021/11/04 05:32:42;;;;;;;26.58;18.83;;;;;;;;;;5075955;28;20204;-61
2021/11/04 05:35:11;;;;;;;28.00;19.27;;;;;;;;;;5075965;28;20672;-61
2021/11/04 05:37:38;;;;;;;26.73;18.50;;;;;;;;;;5075621;28;20193;-61
2021/11/04 05:40:06;;;;;;;27.25;19.08;;;;;;;;;;5075438;28;20197;-61
2021/11/04 05:42:33;;;;;;;29.30;20.60;;;;;;;;;;5075482;28;20211;-61
2021/11/04 05:45:00;;;;;;;26.58;18.75;;;;;;;;;;5075735;28;20215;-62
2021/11/04 05:47:28;;;;;;;26.45;19.40;;;;;;;;;;5075394;28;20240;-59
2021/11/04 05:49:55;;;;;;;31.05;19.70;;;;;;;;;;5075393;28;20247;-62
2021/11/04 05:52:24;;;;;;;29.67;20.70;;;;;;;;;;5075651;28;20262;-61
2021/11/04 05:54:53;;;;;;;29.38;19.48;;;;;;;;;;5075692;28;20204;-59
2021/11/04 05:57:21;;;;;;;25.40;17.67;;;;;;;;;;5075373;28;20205;-62
2021/11/04 05:59:48;;;;;;;29.33;19.75;;;;;;;;;;5075551;28;20204;-62
2021/11/04 06:02:15;;;;;;;27.05;18.50;;;;;;;;;;5075734;28;20228;-61
2021/11/04 06:04:43;;;;;;;28.48;19.42;;;;;;;;;;5075297;28;20200;-60
2021/11/04 06:07:11;;;;;;;21.27;16.83;;;;;;;;;;5075385;28;20295;-61
2021/11/04 06:09:39;;;;;;;26.08;19.10;;;;;;;;;;5075498;28;20196;-62
2021/11/04 06:12:07;;;;;;;25.02;18.20;;;;;;;;;;5075598;28;20228;-61
2021/11/04 06:14:34;;;;;;;24.95;17.42;;;;;;;;;;5074778;28;20203;-60
2021/11/04 06:17:02;;;;;;;27.13;17.58;;;;;;;;;;5076019;28;20205;-62
2021/11/04 06:19:29;;;;;;;26.17;18.33;;;;;;;;;;5075038;28;20204;-62
2021/11/04 06:21:57;;;;;;;25.25;16.88;;;;;;;;;;5074860;28;20231;-62
2021/11/04 06:24:24;;;;;;;26.15;18.05;;;;;;;;;;5074813;28;20342;-61
2021/11/04 06:26:52;;;;;;;25.20;19.45;;;;;;;;;;5074907;28;20209;-62
2021/11/04 06:29:20;;;;;;;25.55;17.00;;;;;;;;;;5075099;28;20224;-62
2021/11/04 06:31:47;;;;;;;28.27;18.60;;;;;;;;;;5074179;28;20231;-61
2021/11/04 06:34:14;;;;;;;26.70;18.23;;;;;;;;;;5074852;28;20664;-61
2021/11/04 06:36:43;;;;;;;26.60;18.98;;;;;;;;;;5074931;28;20326;-60
2021/11/04 06:39:10;;;;;;;26.25;18.45;;;;;;;;;;5074972;28;20200;-61
2021/11/04 06:41:37;;;;;;;27.40;19.33;;;;;;;;;;5075488;28;20227;-61
2021/11/04 06:44:06;;;;;;;24.95;17.77;;;;;;;;;;5075305;28;20208;-61
2021/11/04 06:46:34;;;;;;;23.52;17.38;;;;;;;;;;5075325;28;20212;-61
2021/11/04 06:49:04;;;;;;;26.63;18.17;;;;;;;;;;5074373;28;20217;-61
2021/11/04 06:51:31;;;;;;;22.75;17.35;;;;;;;;;;5074578;28;20221;-61
2021/11/04 06:53:59;;;;;;;22.52;17.50;;;;;;;;;;5074661;28;20204;-60
2021/11/04 06:56:27;;;;;;;24.52;17.75;;;;;;;;;;5074634;28;20208;-61
2021/11/04 06:58:55;;;;;;;26.92;18.02;;;;;;;;;;5074679;28;20197;-61
2021/11/04 07:01:24;;;;;;;28.63;18.88;;;;;;;;;;5074245;28;20228;-61
2021/11/04 07:03:54;;;;;;;26.40;17.52;;;;;;;;;;5074292;28;20595;-60
2021/11/04 07:06:26;;;;;;;29.33;18.80;;;;;;;;;;5074193;28;20212;-61
2021/11/04 07:08:57;;;;;;;29.20;18.55;;;;;;;;;;5074729;28;20213;-60
2021/11/04 07:11:26;;;;;;;28.05;17.20;;;;;;;;;;5073946;28;20331;-60
2021/11/04 07:13:54;;;;;;;29.90;17.95;;;;;;;;;;5074351;28;20227;-61
2021/11/04 07:16:24;;;;;;;27.80;18.10;;;;;;;;;;5075088;28;20609;-60
2021/11/04 07:18:53;;;;;;;29.13;19.00;;;;;;;;;;5076422;28;20228;-59
2021/11/04 07:21:23;;;;;;;31.73;21.40;;;;;;;;;;5085705;28;20720;-62
2021/11/04 07:23:53;;;;;;;23.73;16.35;;;;;;;;;;5088520;28;20201;-62
2021/11/04 07:26:22;;;;;;;25.40;17.70;;;;;;;;;;5087689;28;20353;-61
2021/11/04 07:28:53;;;;;;;23.85;18.13;;;;;;;;;;5086875;28;20224;-60
2021/11/04 07:31:22;;;;;;;27.40;17.90;;;;;;;;;;5086839;28;20312;-60
2021/11/04 07:33:51;;;;;;;25.05;18.00;;;;;;;;;;5080393;28;20196;-62
2021/11/04 07:36:21;;;;;;;26.20;16.65;;;;;;;;;;5081870;28;20209;-61
2021/11/04 07:38:49;;;;;;;23.45;17.17;;;;;;;;;;5074773;28;20200;-60
2021/11/04 07:41:16;;;;;;;24.20;16.95;;;;;;;;;;5073761;28;20625;-62
2021/11/04 07:43:44;;;;;;;24.67;16.00;;;;;;;;;;5074151;28;20208;-61
2021/11/04 07:46:11;;;;;;;23.70;15.50;;;;;;;;;;5073697;28;20676;-60
2021/11/04 07:48:38;;;;;;;22.05;16.70;;;;;;;;;;5073933;28;20221;-61
2021/11/04 07:51:06;;;;;;;24.73;15.20;;;;;;;;;;5073953;28;20707;-59
2021/11/04 07:53:34;;;;;;;25.90;17.10;;;;;;;;;;5073392;28;20208;-60
2021/11/04 07:56:02;;;;;;;19.98;16.02;;;;;;;;;;5073891;28;20216;-62
2021/11/04 07:58:29;;;;;;;19.45;15.75;;;;;;;;;;5073653;28;20215;-61
2021/11/04 08:00:56;;;;;;;22.52;15.98;;;;;;;;;;5073695;28;20227;-61
2021/11/04 08:03:23;;;;;;;23.23;17.50;;;;;;;;;;5074008;28;20274;-62
2021/11/04 08:05:51;;;;;;;24.02;16.80;;;;;;;;;;5073853;28;20672;-63
2021/11/04 08:08:18;;;;;;;21.65;15.75;;;;;;;;;;5074385;28;20220;-62
2021/11/04 08:10:47;;;;;;;18.70;14.68;;;;;;;;;;5073642;28;20712;-61
2021/11/04 08:13:14;;;;;;;20.08;15.45;;;;;;;;;;5073615;28;20212;-62
2021/11/04 08:15:41;;;;;;;25.17;15.32;;;;;;;;;;5073635;28;20201;-61
2021/11/04 08:18:09;;;;;;;19.80;14.52;;;;;;;;;;5072913;28;20672;-62
2021/11/04 08:20:37;;;;;;;19.33;14.65;;;;;;;;;;5073163;28;20228;-61
2021/11/04 08:23:09;;;;;;;19.90;15.98;;;;;;;;;;5075729;28;20211;-61
2021/11/04 08:25:36;;;;;;;22.35;14.80;;;;;;;;;;5076970;28;20242;-62
2021/11/04 08:28:05;;;;;;;21.83;15.55;;;;;;;;;;5074969;28;20225;-62
2021/11/04 08:30:32;;;;;;;20.50;15.68;;;;;;;;;;5074725;28;20223;-61
2021/11/04 08:33:00;;;;;;;21.52;15.57;;;;;;;;;;5074688;28;20711;-62
2021/11/04 08:35:27;;;;;;;20.58;15.57;;;;;;;;;;5073824;28;20196;-61
2021/11/04 08:37:54;;;;;;;19.85;15.52;;;;;;;;;;5074436;28;20227;-62
2021/11/04 08:40:22;;;;;;;21.60;16.10;;;;;;;;;;5075078;28;20228;-62
2021/11/04 08:42:50;;;;;;;18.42;15.23;;;;;;;;;;5075287;28;20206;-62
2021/11/04 08:45:19;;;;;;;22.50;17.45;;;;;;;;;;5073878;28;20288;-62
2021/11/04 08:47:46;;;;;;;21.42;16.88;;;;;;;;;;5073117;28;20204;-62
2021/11/04 08:50:14;;;;;;;20.45;15.32;;;;;;;;;;5072871;28;20228;-61
2021/11/04 08:52:41;;;;;;;19.77;14.52;;;;;;;;;;5072877;28;20677;-62
2021/11/04 08:55:09;;;;;;;21.08;15.30;;;;;;;;;;5075889;28;20212;-62
2021/11/04 08:57:37;;;;;;;21.95;15.70;;;;;;;;;;5076551;28;20625;-60
2021/11/04 09:00:05;;;;;;;19.63;15.10;;;;;;;;;;5077252;28;20201;-61
2021/11/04 09:02:34;;;;;;;22.17;16.15;;;;;;;;;;5077401;28;20209;-62
2021/11/04 09:05:06;;;;;;;17.85;13.55;;;;;;;;;;5077007;28;20205;-61
2021/11/04 09:07:33;;;;;;;21.35;15.73;;;;;;;;;;5076627;28;20181;-61
2021/11/04 09:10:01;;;;;;;19.75;14.40;;;;;;;;;;5076057;28;20263;-61
2021/11/04 09:12:28;;;;;;;23.70;15.35;;;;;;;;;;5075929;28;20209;-62
2021/11/04 09:14:55;;;;;;;19.58;15.23;;;;;;;;;;5076410;28;20200;-61
2021/11/04 09:17:23;;;;;;;19.67;15.02;;;;;;;;;;5076013;28;20208;-61
2021/11/04 09:19:52;;;;;;;23.38;15.05;;;;;;;;;;5076280;28;20668;-60
2021/11/04 09:22:20;;;;;;;19.55;15.45;;;;;;;;;;5076043;28;20233;-61
2021/11/04 09:24:47;;;;;;;17.95;13.73;;;;;;;;;;5075805;28;20201;-61
2021/11/04 09:27:15;;;;;;;15.98;12.50;;;;;;;;;;5076204;28;20197;-59
2021/11/04 09:29:42;;;;;;;18.23;14.75;;;;;;;;;;5076424;28;20232;-62
2021/11/04 09:32:10;;;;;;;19.23;14.25;;;;;;;;;;5076210;28;20221;-62
2021/11/04 09:34:38;;;;;;;19.42;14.93;;;;;;;;;;5076281;28;20216;-62
2021/11/04 09:37:07;;;;;;;22.33;15.30;;;;;;;;;;5076120;28;20205;-61
2021/11/04 09:39:35;;;;;;;18.92;14.20;;;;;;;;;;5076179;28;20204;-61
2021/11/04 09:42:03;;;;;;;18.73;14.60;;;;;;;;;;5076097;28;20605;-61
2021/11/04 09:44:31;;;;;;;19.95;14.55;;;;;;;;;;5076399;28;20205;-61
2021/11/04 09:46:58;;;;;;;24.25;14.82;;;;;;;;;;5076034;28;20219;-61
2021/11/04 09:49:27;;;;;;;18.77;13.30;;;;;;;;;;5075660;28;20213;-61
2021/11/04 09:51:55;;;;;;;19.40;15.07;;;;;;;;;;5075683;28;20221;-61
2021/11/04 09:54:23;;;;;;;19.73;14.45;;;;;;;;;;5075790;28;20204;-61
2021/11/04 09:56:50;;;;;;;17.00;13.93;;;;;;;;;;5075734;28;20205;-61
2021/11/04 09:59:18;;;;;;;20.23;14.63;;;;;;;;;;5075586;28;20204;-61
2021/11/04 10:01:46;;;;;;;20.38;14.82;;;;;;;;;;5075642;28;20224;-61
2021/11/04 10:04:14;;;;;;;21.80;14.10;;;;;;;;;;5075690;28;20196;-62
2021/11/04 10:06:42;;;;;;;19.10;13.70;;;;;;;;;;5075164;28;20197;-61
2021/11/04 10:09:10;;;;;;;21.98;16.60;;;;;;;;;;5075690;28;20228;-61
2021/11/04 10:11:41;;;;;;;18.63;13.60;;;;;;;;;;5074991;28;20225;-61
2021/11/04 10:14:10;;;;;;;17.95;13.07;;;;;;;;;;5075520;28;20264;-61
2021/11/04 10:16:37;;;;;;;16.83;13.55;;;;;;;;;;5075093;28;20205;-60
2021/11/04 10:19:05;;;;;;;17.88;13.18;;;;;;;;;;5075361;28;20193;-61
2021/11/04 10:21:33;;;;;;;20.23;13.25;;;;;;;;;;5090361;22;20224;-56
2021/11/04 10:24:00;;;;;;;18.38;13.43;;;;;;;;;;5074720;28;20196;-56
2021/11/04 10:26:29;;;;;;;15.82;13.25;;;;;;;;;;5075750;28;20283;-56
2021/11/04 10:29:01;;;;;;;20.00;14.60;;;;;;;;;;5075200;28;20242;-56
2021/11/04 10:31:36;;;;;;;19.13;13.43;;;;;;;;;;5074613;28;20228;-56
2021/11/04 10:34:03;;;;;;;18.75;13.80;;;;;;;;;;5074738;28;20185;-56
2021/11/04 10:36:31;;;;;;;21.30;15.13;;;;;;;;;;5074649;28;20204;-56
2021/11/04 10:38:59;;;;;;;23.58;15.40;;;;;;;;;;5074688;28;20553;-57
2021/11/04 10:41:27;;;;;;;21.95;15.77;;;;;;;;;;5074340;28;20665;-57
2021/11/04 10:43:55;;;;;;;17.73;13.30;;;;;;;;;;5074491;28;20196;-56
2021/11/04 10:46:25;;;;;;;16.27;12.40;;;;;;;;;;5074197;28;20212;-54
2021/11/04 10:48:57;;;;;;;17.25;13.95;;;;;;;;;;5074241;28;20217;-56
2021/11/04 10:51:24;;;;;;;15.02;11.45;;;;;;;;;;5074401;28;20220;-57
2021/11/04 10:53:55;;;;;;;16.55;12.52;;;;;;;;;;5073982;28;20684;-57
2021/11/04 10:56:23;;;;;;;17.58;12.00;;;;;;;;;;5074205;28;20253;-56
2021/11/04 10:58:54;;;;;;;17.95;11.85;;;;;;;;;;5073759;28;20696;-57
2021/11/04 11:01:26;;;;;;;17.42;12.50;;;;;;;;;;5074096;28;20300;-56
2021/11/04 11:03:55;;;;;;;16.20;11.60;;;;;;;;;;5073653;28;20691;-57
2021/11/04 11:06:24;;;;;;;15.30;11.95;;;;;;;;;;5073840;28;20200;-57
2021/11/04 11:08:51;;;;;;;15.27;12.30;;;;;;;;;;5073523;28;20262;-57
2021/11/04 11:11:21;;;;;;;13.93;11.75;;;;;;;;;;5073568;28;20228;-56
2021/11/04 11:13:48;;;;;;;16.52;12.77;;;;;;;;;;5073526;28;20236;-56
2021/11/04 11:16:17;;;;;;;18.58;12.90;;;;;;;;;;5072960;28;20205;-57
2021/11/04 11:18:46;;;;;;;15.40;12.45;;;;;;;;;;5074045;28;20291;-57
2021/11/04 11:21:14;;;;;;;17.95;14.18;;;;;;;;;;5074590;28;20229;-56
2021/11/04 11:23:42;;;;;;;17.10;13.02;;;;;;;;;;5074700;28;20189;-58
2021/11/04 11:26:14;;;;;;;18.45;13.30;;;;;;;;;;5074424;28;20695;-57
2021/11/04 11:28:42;;;;;;;18.02;12.45;;;;;;;;;;5074955;28;20186;-57
2021/11/04 11:31:16;;;;;;;17.92;13.07;;;;;;;;;;5074194;28;20704;-56
2021/11/04 11:33:45;;;;;;;17.92;13.98;;;;;;;;;;5074547;28;20204;-57
2021/11/04 11:36:18;;;;;;;20.77;13.35;;;;;;;;;;5074566;28;20201;-57
2021/11/04 11:39:06;;;;;;;20.10;13.60;;;;;;;;;;5073577;28;20232;-57
2021/11/04 11:41:35;;;;;;;21.75;15.07;;;;;;;;;;5073373;28;20240;-57
2021/11/04 11:44:05;;;;;;;21.90;14.55;;;;;;;;;;5073236;28;20201;-57
2021/11/04 11:46:32;;;;;;;17.83;14.85;;;;;;;;;;5073638;28;20228;-56
2021/11/04 11:49:18;;;;;;;18.40;12.90;;;;;;;;;;5073321;28;20335;-56
2021/11/04 11:51:54;;;;;;;17.27;13.40;;;;;;;;;;5073069;28;20216;-56
2021/11/04 11:54:21;;;;;;;18.40;13.80;;;;;;;;;;5073317;28;20613;-57
2021/11/04 11:57:03;;;;;;;17.67;12.63;;;;;;;;;;5073270;28;20209;-57
2021/11/04 11:59:30;;;;;;;16.60;12.38;;;;;;;;;;5073231;28;20200;-58
2021/11/04 12:01:58;;;;;;;16.70;13.35;;;;;;;;;;5072827;28;20225;-56
2021/11/04 12:04:26;;;;;;;18.60;14.07;;;;;;;;;;5072781;28;20207;-57
2021/11/04 12:06:55;;;;;;;20.17;14.10;;;;;;;;;;5072867;28;20207;-56
2021/11/04 12:09:49;;;;;;;17.27;13.43;;;;;;;;;;5072852;28;20217;-56
2021/11/04 12:12:35;;;;;;;18.00;14.25;;;;;;;;;;5072594;28;20727;-55
2021/11/04 12:15:04;;;;;;;17.48;13.25;;;;;;;;;;5072567;28;20648;-57
2021/11/04 12:17:31;;;;;;;17.25;13.38;;;;;;;;;;5073597;28;20204;-57
2021/11/04 12:20:00;;;;;;;20.15;15.10;;;;;;;;;;5072806;28;20196;-57
2021/11/04 12:22:30;;;;;;;20.35;14.90;;;;;;;;;;5072579;28;20232;-57
2021/11/04 12:24:58;;;;;;;20.33;15.43;;;;;;;;;;5072819;28;20208;-57
2021/11/04 12:27:26;;;;;;;18.65;15.40;;;;;;;;;;5072358;28;20197;-58
2021/11/04 12:29:54;;;;;;;18.05;14.07;;;;;;;;;;5075495;28;20220;-56
2021/11/04 12:32:23;;;;;;;21.90;14.50;;;;;;;;;;5076793;28;20225;-55
2021/11/04 12:34:58;;;;;;;23.42;15.68;;;;;;;;;;5076558;28;20212;-56
2021/11/04 12:37:28;;;;;;;22.35;15.65;;;;;;;;;;5076229;28;20207;-57
2021/11/04 12:39:57;;;;;;;21.10;15.38;;;;;;;;;;5076908;28;20522;-58
2021/11/04 12:42:24;;;;;;;20.83;15.60;;;;;;;;;;5076195;28;20225;-55
2021/11/04 12:44:52;;;;;;;22.60;15.60;;;;;;;;;;5076604;28;20205;-58
2021/11/04 12:47:20;;;;;;;17.50;14.80;;;;;;;;;;5076279;28;20258;-58
2021/11/04 12:49:47;;;;;;;20.73;16.13;;;;;;;;;;5076561;28;20221;-57
2021/11/04 12:52:16;;;;;;;21.38;16.02;;;;;;;;;;5076031;28;20224;-56
2021/11/04 12:54:44;;;;;;;20.83;15.25;;;;;;;;;;5076444;28;20205;-57
2021/11/04 12:57:13;;;;;;;18.92;14.80;;;;;;;;;;5076213;28;20209;-57
2021/11/04 12:59:42;;;;;;;19.38;14.98;;;;;;;;;;5076686;28;20285;-57
2021/11/04 13:02:11;;;;;;;18.50;14.85;;;;;;;;;;5076094;28;20709;-57
2021/11/04 13:04:39;;;;;;;23.20;16.40;;;;;;;;;;5076194;28;20250;-56
2021/11/04 13:07:08;;;;;;;20.45;15.10;;;;;;;;;;5076115;28;20211;-57
2021/11/04 13:09:43;;;;;;;19.40;15.25;;;;;;;;;;5076070;28;20223;-57
2021/11/04 13:12:12;;;;;;;17.80;13.57;;;;;;;;;;5076364;28;20320;-57
2021/11/04 13:14:58;;;;;;;17.67;12.73;;;;;;;;;;5075599;28;20726;-56
2021/11/04 13:17:27;;;;;;;17.35;14.13;;;;;;;;;;5075960;28;20205;-57
2021/11/04 13:20:13;;;;;;;17.67;13.00;;;;;;;;;;5075604;28;20204;-58
2021/11/04 13:22:41;;;;;;;17.50;13.15;;;;;;;;;;5075866;28;20232;-56
2021/11/04 13:25:10;;;;;;;16.00;12.93;;;;;;;;;;5075734;28;20204;-57
2021/11/04 13:27:38;;;;;;;16.45;12.52;;;;;;;;;;5075617;28;20212;-59
2021/11/04 13:30:06;;;;;;;15.10;12.13;;;;;;;;;;5075994;28;20682;-57
2021/11/04 13:32:35;;;;;;;15.80;12.85;;;;;;;;;;5075484;28;20221;-57
2021/11/04 13:35:03;;;;;;;15.77;12.77;;;;;;;;;;5075294;28;20505;-55
2021/11/04 13:37:31;;;;;;;14.65;13.00;;;;;;;;;;5075521;28;20201;-57
2021/11/04 13:39:59;;;;;;;15.60;12.63;;;;;;;;;;5075087;28;20192;-56
2021/11/04 13:42:30;;;;;;;15.77;12.40;;;;;;;;;;5075673;28;20221;-57
2021/11/04 13:45:11;;;;;;;14.18;12.13;;;;;;;;;;5075813;28;20185;-57
2021/11/04 13:47:40;;;;;;;15.77;12.77;;;;;;;;;;5075421;28;20196;-57
2021/11/04 13:50:09;;;;;;;16.42;13.05;;;;;;;;;;5075468;28;20221;-56
2021/11/04 13:52:36;;;;;;;16.80;11.77;;;;;;;;;;5075544;28;20225;-57
2021/11/04 13:55:05;;;;;;;16.83;12.50;;;;;;;;;;5075077;28;20573;-56
2021/11/04 13:57:47;;;;;;;16.00;12.00;;;;;;;;;;5076019;28;20201;-57
2021/11/04 14:00:20;;;;;;;15.82;12.15;;;;;;;;;;5075794;28;20555;-55
2021/11/04 14:02:49;;;;;;;15.13;11.73;;;;;;;;;;5075271;28;20692;-57
2021/11/04 14:05:16;;;;;;;15.00;11.65;;;;;;;;;;5075557;28;20288;-58
2021/11/04 14:07:50;;;;;;;15.82;12.10;;;;;;;;;;5075138;28;20207;-57
2021/11/04 14:10:18;;;;;;;11.85;8.73;;;;;;;;;;5075544;28;20231;-56
2021/11/04 14:12:46;;;;;;;11.77;9.80;;;;;;;;;;5075418;28;20346;-58
2021/11/04 14:15:14;;;;;;;12.43;10.23;;;;;;;;;;5074903;28;20243;-56
2021/11/04 14:17:45;;;;;;;12.68;9.68;;;;;;;;;;5075071;28;20220;-56
2021/11/04 14:20:14;;;;;;;13.20;9.85;;;;;;;;;;5074590;28;20570;-57
2021/11/04 14:22:41;;;;;;;9.30;7.45;;;;;;;;;;5074856;28;20620;-56
2021/11/04 14:25:10;;;;;;;13.95;9.85;;;;;;;;;;5074867;28;20207;-56